Time;durP1;ratioP1;P1;durP2;ratioP2;P2;SDS_P1;SDS_P2;PMS_P1;PMS_P2;Temp;Humidity;BMP_temperature;BMP_pressure;BME280_temperature;BME280_humidity;BME280_pressure;Samples;Min_cycle;Max_cycle;Signal;HPM_P1;HPM_P2
2024/03/09 00:00:45;;;;;;;48.95;27.67;;;;;;;;;;4990608;28;20041;-75
2024/03/09 00:03:11;;;;;;;57.20;29.70;;;;;;;;;;4990543;28;20084;-76
2024/03/09 00:05:39;;;;;;;49.90;26.52;;;;;;;;;;4990520;28;20053;-76
2024/03/09 00:08:07;;;;;;;47.38;26.65;;;;;;;;;;4992598;28;20034;-75
2024/03/09 00:10:32;;;;;;;56.50;29.83;;;;;;;;;;4989325;28;20402;-75
2024/03/09 00:12:58;;;;;;;46.38;25.73;;;;;;;;;;4990257;28;20026;-74
2024/03/09 00:15:24;;;;;;;48.85;26.50;;;;;;;;;;4990116;28;20045;-75
2024/03/09 00:17:53;;;;;;;47.53;26.63;;;;;;;;;;4990955;28;20511;-75
2024/03/09 00:20:21;;;;;;;50.47;26.45;;;;;;;;;;4990144;28;20038;-75
2024/03/09 00:22:47;;;;;;;49.80;25.48;;;;;;;;;;4991373;28;20038;-75
2024/03/09 00:25:12;;;;;;;48.53;27.27;;;;;;;;;;4989952;28;20035;-76
2024/03/09 00:27:40;;;;;;;44.47;24.85;;;;;;;;;;4990754;28;20033;-75
2024/03/09 00:30:10;;;;;;;51.47;27.35;;;;;;;;;;4991459;28;20495;-75
2024/03/09 00:32:35;;;;;;;50.28;25.52;;;;;;;;;;4997736;28;20030;-75
2024/03/09 00:35:01;;;;;;;52.10;26.42;;;;;;;;;;4990373;28;20043;-75
2024/03/09 00:37:26;;;;;;;51.15;28.80;;;;;;;;;;4990403;28;20035;-75
2024/03/09 00:39:51;;;;;;;45.80;24.92;;;;;;;;;;4996331;28;20041;-75
2024/03/09 00:42:19;;;;;;;48.60;26.13;;;;;;;;;;4989849;28;20033;-75
2024/03/09 00:44:44;;;;;;;48.60;27.38;;;;;;;;;;4991184;28;20659;-75
2024/03/09 00:47:10;;;;;;;52.83;28.48;;;;;;;;;;4992797;28;20088;-75
2024/03/09 00:49:35;;;;;;;41.97;23.52;;;;;;;;;;4996209;28;20030;-76
2024/03/09 00:52:05;;;;;;;45.45;26.63;;;;;;;;;;4993548;28;20041;-75
2024/03/09 00:54:30;;;;;;;43.40;24.67;;;;;;;;;;4993509;28;20042;-75
2024/03/09 00:56:55;;;;;;;45.70;24.98;;;;;;;;;;4994355;28;20095;-75
2024/03/09 00:59:22;;;;;;;42.25;23.38;;;;;;;;;;4995478;28;20081;-75
2024/03/09 01:01:48;;;;;;;48.65;26.85;;;;;;;;;;4993244;28;20030;-76
2024/03/09 01:04:14;;;;;;;43.38;24.30;;;;;;;;;;4992163;28;20034;-76
2024/03/09 01:06:39;;;;;;;44.17;25.00;;;;;;;;;;4997968;28;20037;-76
2024/03/09 01:09:04;;;;;;;48.03;26.52;;;;;;;;;;4995271;28;20058;-76
2024/03/09 01:11:30;;;;;;;45.60;23.98;;;;;;;;;;4992202;28;20188;-76
2024/03/09 01:13:56;;;;;;;45.00;24.00;;;;;;;;;;4993314;28;20026;-76
2024/03/09 01:16:21;;;;;;;43.03;22.88;;;;;;;;;;4993307;28;20038;-76
2024/03/09 01:18:47;;;;;;;41.53;23.10;;;;;;;;;;4997002;28;20045;-75
2024/03/09 01:21:14;;;;;;;42.20;23.45;;;;;;;;;;4993077;28;20042;-75
2024/03/09 01:23:39;;;;;;;47.67;26.25;;;;;;;;;;4992865;28;20038;-75
2024/03/09 01:26:05;;;;;;;45.88;24.50;;;;;;;;;;4993133;28;20045;-75
2024/03/09 01:28:30;;;;;;;50.85;25.80;;;;;;;;;;4998291;28;20033;-75
2024/03/09 01:30:57;;;;;;;42.38;24.33;;;;;;;;;;4993051;28;20403;-75
2024/03/09 01:33:23;;;;;;;41.33;24.05;;;;;;;;;;4992901;28;20121;-75
2024/03/09 01:35:48;;;;;;;51.47;26.60;;;;;;;;;;4992897;28;20105;-75
2024/03/09 01:38:17;;;;;;;43.58;24.15;;;;;;;;;;4995034;28;20089;-76
2024/03/09 01:40:43;;;;;;;46.28;25.73;;;;;;;;;;4992851;28;20144;-75
2024/03/09 01:43:08;;;;;;;47.58;26.83;;;;;;;;;;4992573;28;20532;-75
2024/03/09 01:45:33;;;;;;;46.47;26.25;;;;;;;;;;4992687;28;20026;-76
2024/03/09 01:48:00;;;;;;;45.63;24.63;;;;;;;;;;4994225;28;20034;-75
2024/03/09 01:50:26;;;;;;;47.95;27.05;;;;;;;;;;4991201;28;20061;-75
2024/03/09 01:52:51;;;;;;;48.30;25.55;;;;;;;;;;4992411;28;20072;-75
2024/03/09 01:55:18;;;;;;;48.72;27.00;;;;;;;;;;4992420;28;20507;-75
2024/03/09 01:57:45;;;;;;;40.20;23.45;;;;;;;;;;4994864;28;20038;-75
2024/03/09 02:00:11;;;;;;;44.15;23.92;;;;;;;;;;4995745;28;20495;-75
2024/03/09 02:02:37;;;;;;;42.90;23.23;;;;;;;;;;4992124;28;20037;-75
2024/03/09 02:05:10;;;;;;;44.58;23.65;;;;;;;;;;4992350;28;20030;-75
2024/03/09 02:07:35;;;;;;;39.35;21.88;;;;;;;;;;4992818;28;20117;-75
2024/03/09 02:10:01;;;;;;;42.08;24.17;;;;;;;;;;4994921;28;20121;-75
2024/03/09 02:12:26;;;;;;;46.13;25.25;;;;;;;;;;4991820;28;20045;-75
2024/03/09 02:14:51;;;;;;;44.10;25.48;;;;;;;;;;4996091;28;20042;-76
2024/03/09 02:17:16;;;;;;;46.22;23.95;;;;;;;;;;4992875;28;20138;-76
2024/03/09 02:19:42;;;;;;;44.95;24.60;;;;;;;;;;4991991;28;20463;-76
2024/03/09 02:22:12;;;;;;;48.15;26.63;;;;;;;;;;4991766;28;20038;-75
2024/03/09 02:24:40;;;;;;;44.83;24.65;;;;;;;;;;4991500;28;20033;-75
2024/03/09 02:27:06;;;;;;;44.05;24.10;;;;;;;;;;4996263;28;20038;-75
2024/03/09 02:29:31;;;;;;;50.08;25.60;;;;;;;;;;4992805;28;20037;-77
2024/03/09 02:31:56;;;;;;;48.20;24.92;;;;;;;;;;4985274;28;20030;-75
2024/03/09 02:34:22;;;;;;;42.40;23.65;;;;;;;;;;4989281;28;20109;-75
2024/03/09 02:36:47;;;;;;;45.05;24.50;;;;;;;;;;4990050;28;20420;-75
2024/03/09 02:39:12;;;;;;;50.60;27.90;;;;;;;;;;4990188;28;20042;-75
2024/03/09 02:41:37;;;;;;;44.65;25.52;;;;;;;;;;4984639;28;20033;-75
2024/03/09 02:44:02;;;;;;;47.78;24.83;;;;;;;;;;4989077;28;20036;-75
2024/03/09 02:46:28;;;;;;;48.60;25.13;;;;;;;;;;4990009;28;20034;-75
2024/03/09 02:48:53;;;;;;;50.70;26.67;;;;;;;;;;4992344;28;20034;-75
2024/03/09 02:51:19;;;;;;;48.28;24.83;;;;;;;;;;4987702;28;20117;-75
2024/03/09 02:53:44;;;;;;;47.95;26.20;;;;;;;;;;4984306;28;20030;-75
2024/03/09 02:56:10;;;;;;;56.63;27.88;;;;;;;;;;4986844;28;20037;-75
2024/03/09 02:58:36;;;;;;;48.08;26.20;;;;;;;;;;4989993;28;20487;-75
2024/03/09 03:01:01;;;;;;;46.78;25.42;;;;;;;;;;4990512;28;20044;-75
2024/03/09 03:06:11;;;;;;;51.25;27.10;;;;;;;;;;4989733;28;20031;-75
2024/03/09 03:08:36;;;;;;;48.67;26.30;;;;;;;;;;4992502;28;20037;-75
2024/03/09 03:11:01;;;;;;;46.83;24.98;;;;;;;;;;4990886;28;20041;-75
2024/03/09 03:13:27;;;;;;;48.08;26.25;;;;;;;;;;4988218;28;20053;-75
2024/03/09 03:15:52;;;;;;;51.97;27.67;;;;;;;;;;4989565;28;20065;-75
2024/03/09 03:18:19;;;;;;;47.58;25.73;;;;;;;;;;4992508;28;20038;-75
2024/03/09 03:20:44;;;;;;;48.90;26.05;;;;;;;;;;4989302;28;20109;-75
2024/03/09 03:23:10;;;;;;;49.97;27.25;;;;;;;;;;4988602;28;20447;-75
2024/03/09 03:25:35;;;;;;;49.72;27.33;;;;;;;;;;4990034;28;20022;-75
2024/03/09 03:28:01;;;;;;;43.45;23.30;;;;;;;;;;4987964;28;20038;-75
2024/03/09 03:30:26;;;;;;;52.65;26.40;;;;;;;;;;4992298;28;20037;-75
2024/03/09 03:32:52;;;;;;;50.10;27.35;;;;;;;;;;4990527;28;20038;-76
2024/03/09 03:35:18;;;;;;;50.03;26.77;;;;;;;;;;4990557;28;20030;-76
2024/03/09 03:37:46;;;;;;;47.90;25.02;;;;;;;;;;4991157;28;20523;-75
2024/03/09 03:40:14;;;;;;;48.95;25.05;;;;;;;;;;4990579;28;20042;-75
2024/03/09 03:42:40;;;;;;;50.13;26.13;;;;;;;;;;4988594;28;20117;-76
2024/03/09 03:45:11;;;;;;;49.13;26.20;;;;;;;;;;4990571;28;20042;-76
2024/03/09 03:47:37;;;;;;;48.80;26.90;;;;;;;;;;4990965;28;20030;-76
2024/03/09 03:50:02;;;;;;;51.75;26.00;;;;;;;;;;4991474;28;20089;-75
2024/03/09 03:52:27;;;;;;;51.50;26.70;;;;;;;;;;4990143;28;20089;-75
2024/03/09 03:54:53;;;;;;;52.85;27.63;;;;;;;;;;4990511;28;20109;-75
2024/03/09 03:57:18;;;;;;;53.53;27.30;;;;;;;;;;4990714;28;20085;-76
2024/03/09 03:59:44;;;;;;;47.67;24.85;;;;;;;;;;4989689;28;20026;-75
2024/03/09 04:02:10;;;;;;;52.78;27.48;;;;;;;;;;4990242;28;20491;-75
2024/03/09 04:04:36;;;;;;;49.97;27.45;;;;;;;;;;4990133;28;20034;-75
2024/03/09 04:07:03;;;;;;;48.08;25.90;;;;;;;;;;4987526;28;20037;-75
2024/03/09 04:09:28;;;;;;;43.30;23.85;;;;;;;;;;4984307;28;20049;-75
2024/03/09 04:11:53;;;;;;;43.33;23.90;;;;;;;;;;4989682;28;20046;-75
2024/03/09 04:14:18;;;;;;;46.13;25.13;;;;;;;;;;4990024;28;20069;-76
2024/03/09 04:16:43;;;;;;;48.28;24.42;;;;;;;;;;4990533;28;20455;-76
2024/03/09 04:19:09;;;;;;;44.65;24.92;;;;;;;;;;4991309;28;20067;-75
2024/03/09 04:21:34;;;;;;;46.70;24.95;;;;;;;;;;4990056;28;20038;-75
2024/03/09 04:24:00;;;;;;;45.13;25.25;;;;;;;;;;4995350;28;20069;-75
2024/03/09 04:26:26;;;;;;;44.95;23.08;;;;;;;;;;4994079;28;20566;-75
2024/03/09 04:28:51;;;;;;;45.15;24.35;;;;;;;;;;4995071;28;20038;-75
2024/03/09 04:31:16;;;;;;;44.50;25.08;;;;;;;;;;4993887;28;20113;-75
2024/03/09 04:33:41;;;;;;;45.85;24.42;;;;;;;;;;4986173;28;20435;-75
2024/03/09 04:36:07;;;;;;;41.67;23.35;;;;;;;;;;4993764;28;20038;-75
2024/03/09 04:38:35;;;;;;;38.38;21.67;;;;;;;;;;4994237;28;20036;-75
2024/03/09 04:41:00;;;;;;;44.38;24.08;;;;;;;;;;4992495;28;20026;-75
2024/03/09 04:43:32;;;;;;;43.55;23.88;;;;;;;;;;4993247;28;20513;-75
2024/03/09 04:45:57;;;;;;;40.07;22.43;;;;;;;;;;4993743;28;20450;-75
2024/03/09 04:48:22;;;;;;;39.25;21.30;;;;;;;;;;4993857;28;20101;-75
2024/03/09 04:50:48;;;;;;;42.72;23.75;;;;;;;;;;4992303;28;20119;-75
2024/03/09 04:53:13;;;;;;;41.95;23.13;;;;;;;;;;4993414;28;20049;-75
2024/03/09 04:55:41;;;;;;;43.28;23.05;;;;;;;;;;4993354;28;20031;-75
2024/03/09 04:58:13;;;;;;;40.63;22.92;;;;;;;;;;4996737;28;20037;-75
2024/03/09 05:00:39;;;;;;;42.22;21.70;;;;;;;;;;4993278;28;20030;-76
2024/03/09 05:03:04;;;;;;;43.55;23.10;;;;;;;;;;4991597;28;20057;-75
2024/03/09 05:05:31;;;;;;;47.10;24.98;;;;;;;;;;4993247;28;20030;-75
2024/03/09 05:07:56;;;;;;;42.53;25.30;;;;;;;;;;4992517;28;20102;-75
2024/03/09 05:10:23;;;;;;;39.05;21.48;;;;;;;;;;4993564;28;20479;-76
2024/03/09 05:12:53;;;;;;;36.58;20.77;;;;;;;;;;4992971;28;20039;-76
2024/03/09 05:15:19;;;;;;;38.63;22.73;;;;;;;;;;4993060;28;20069;-77
2024/03/09 05:17:44;;;;;;;37.60;21.10;;;;;;;;;;4997054;28;20394;-76
2024/03/09 05:20:20;;;;;;;41.00;23.13;;;;;;;;;;4992114;28;20162;-76
2024/03/09 05:22:46;;;;;;;42.33;22.92;;;;;;;;;;4995121;28;20034;-75
2024/03/09 05:25:12;;;;;;;43.55;23.90;;;;;;;;;;4993340;28;20576;-76
2024/03/09 05:27:40;;;;;;;40.10;22.55;;;;;;;;;;4994972;28;20734;-76
2024/03/09 05:30:09;;;;;;;41.20;22.00;;;;;;;;;;4989420;28;20038;-76
2024/03/09 05:32:35;;;;;;;44.03;23.38;;;;;;;;;;4992613;28;20039;-75
2024/03/09 05:35:00;;;;;;;37.88;21.80;;;;;;;;;;4991683;28;20089;-76
2024/03/09 05:37:25;;;;;;;39.58;21.20;;;;;;;;;;4992980;28;20030;-75
2024/03/09 05:39:50;;;;;;;36.97;20.92;;;;;;;;;;4994627;28;20162;-76
2024/03/09 05:42:16;;;;;;;37.17;20.48;;;;;;;;;;4992647;28;20105;-75
2024/03/09 05:44:41;;;;;;;40.25;21.33;;;;;;;;;;4992440;28;20053;-75
2024/03/09 05:47:06;;;;;;;41.13;24.30;;;;;;;;;;4992906;28;20058;-75
2024/03/09 05:49:32;;;;;;;38.92;22.80;;;;;;;;;;4993510;28;20415;-77
2024/03/09 05:51:58;;;;;;;40.65;23.10;;;;;;;;;;4992465;28;20062;-74
2024/03/09 05:54:23;;;;;;;42.45;23.48;;;;;;;;;;4992212;28;20034;-76
2024/03/09 05:56:48;;;;;;;35.88;21.80;;;;;;;;;;4992701;28;20396;-75
2024/03/09 05:59:15;;;;;;;35.75;21.15;;;;;;;;;;4995355;28;20177;-75
2024/03/09 06:01:40;;;;;;;39.83;23.08;;;;;;;;;;4990708;28;20502;-76
2024/03/09 06:04:05;;;;;;;41.40;22.27;;;;;;;;;;4992207;28;20045;-75
2024/03/09 06:06:30;;;;;;;37.13;21.20;;;;;;;;;;4992350;28;20034;-76
2024/03/09 06:08:55;;;;;;;37.85;22.48;;;;;;;;;;4997611;28;20030;-75
2024/03/09 06:11:21;;;;;;;39.00;21.80;;;;;;;;;;4993513;28;20026;-76
2024/03/09 06:13:48;;;;;;;41.25;21.77;;;;;;;;;;4992108;28;20113;-75
2024/03/09 06:16:15;;;;;;;40.03;21.67;;;;;;;;;;4992192;28;20486;-75
2024/03/09 06:18:40;;;;;;;37.90;22.58;;;;;;;;;;4997523;28;20093;-75
2024/03/09 06:21:05;;;;;;;35.83;21.30;;;;;;;;;;4993362;28;20472;-75
2024/03/09 06:23:31;;;;;;;35.92;21.25;;;;;;;;;;4991541;28;20034;-75
2024/03/09 06:25:56;;;;;;;38.38;22.25;;;;;;;;;;4991888;28;20034;-75
2024/03/09 06:28:21;;;;;;;33.58;19.77;;;;;;;;;;4992694;28;20438;-75
2024/03/09 06:30:47;;;;;;;42.03;23.77;;;;;;;;;;4992756;28;20120;-75
2024/03/09 06:33:12;;;;;;;36.40;22.00;;;;;;;;;;4991481;28;20026;-75
2024/03/09 06:35:38;;;;;;;40.25;23.42;;;;;;;;;;4991430;28;20030;-75
2024/03/09 06:38:07;;;;;;;43.50;23.17;;;;;;;;;;4992177;28;20034;-76
2024/03/09 06:40:41;;;;;;;37.00;21.60;;;;;;;;;;4993330;28;20056;-75
2024/03/09 06:43:06;;;;;;;41.30;23.65;;;;;;;;;;4988568;28;20034;-75
2024/03/09 06:45:31;;;;;;;36.25;21.02;;;;;;;;;;4991228;28;20094;-75
2024/03/09 06:48:00;;;;;;;39.28;23.23;;;;;;;;;;4993794;28;20029;-74
2024/03/09 06:50:26;;;;;;;39.33;22.33;;;;;;;;;;4994199;28;20084;-75
2024/03/09 06:52:51;;;;;;;40.10;22.33;;;;;;;;;;4991246;28;20634;-75
2024/03/09 06:55:18;;;;;;;35.70;20.83;;;;;;;;;;4990092;28;20046;-77
2024/03/09 06:57:46;;;;;;;39.65;23.60;;;;;;;;;;4989723;28;20502;-76
2024/03/09 07:00:14;;;;;;;43.20;23.55;;;;;;;;;;4991939;28;20161;-75
2024/03/09 07:02:43;;;;;;;40.60;24.48;;;;;;;;;;4989996;28;20084;-75
2024/03/09 07:05:12;;;;;;;38.80;21.80;;;;;;;;;;4990952;28;20034;-76
2024/03/09 07:07:41;;;;;;;38.65;22.90;;;;;;;;;;4988710;28;20121;-76
2024/03/09 07:10:12;;;;;;;38.83;22.63;;;;;;;;;;4991401;28;20395;-76
2024/03/09 07:12:40;;;;;;;38.72;22.60;;;;;;;;;;4989655;28;20456;-75
2024/03/09 07:15:15;;;;;;;37.28;22.77;;;;;;;;;;4990170;28;20026;-75
2024/03/09 07:17:40;;;;;;;36.83;22.70;;;;;;;;;;4987532;28;20495;-75
2024/03/09 07:20:12;;;;;;;37.35;21.08;;;;;;;;;;4989106;28;20039;-75
2024/03/09 07:22:44;;;;;;;33.37;19.70;;;;;;;;;;4990389;28;20403;-76
2024/03/09 07:25:10;;;;;;;;;;;;;;;;;;4991096;28;20062;-76
2024/03/09 07:27:35;;;;;;;34.35;19.65;;;;;;;;;;4990887;28;19921;-76
2024/03/09 07:30:04;;;;;;;36.28;21.20;;;;;;;;;;4996960;28;20291;-76
2024/03/09 07:32:29;;;;;;;39.33;22.42;;;;;;;;;;4991857;28;20590;-76
2024/03/09 07:34:55;;;;;;;35.85;20.67;;;;;;;;;;4990660;28;20045;-76
2024/03/09 07:37:20;;;;;;;37.97;22.52;;;;;;;;;;4990799;28;20571;-76
2024/03/09 07:39:47;;;;;;;34.90;20.70;;;;;;;;;;4997295;28;20035;-75
2024/03/09 07:42:13;;;;;;;36.85;21.42;;;;;;;;;;4989566;28;20033;-76
2024/03/09 07:44:38;;;;;;;39.17;23.58;;;;;;;;;;4984398;28;20023;-76
2024/03/09 07:47:03;;;;;;;41.33;23.48;;;;;;;;;;4986295;28;20550;-76
2024/03/09 07:49:28;;;;;;;41.45;24.50;;;;;;;;;;4991392;28;20026;-76
2024/03/09 07:51:56;;;;;;;38.40;23.80;;;;;;;;;;4989896;28;20403;-75
2024/03/09 07:54:22;;;;;;;40.92;22.30;;;;;;;;;;4990354;28;20376;-76
2024/03/09 07:56:48;;;;;;;32.10;19.15;;;;;;;;;;4990033;28;20492;-75
2024/03/09 07:59:13;;;;;;;33.00;20.40;;;;;;;;;;4997648;28;20117;-76
2024/03/09 08:01:38;;;;;;;32.85;19.77;;;;;;;;;;4995967;28;20847;-75
2024/03/09 08:04:04;;;;;;;36.78;22.00;;;;;;;;;;4996880;28;20527;-75
2024/03/09 08:06:29;;;;;;;34.08;20.75;;;;;;;;;;4996202;28;20038;-75
2024/03/09 08:08:54;;;;;;;37.60;21.10;;;;;;;;;;5001752;28;20044;-76
2024/03/09 08:11:22;;;;;;;37.65;21.15;;;;;;;;;;4995587;28;20030;-76
2024/03/09 08:13:47;;;;;;;36.20;21.88;;;;;;;;;;4997603;28;20487;-76
2024/03/09 08:16:13;;;;;;;37.55;23.45;;;;;;;;;;4996874;28;20038;-76
2024/03/09 08:18:38;;;;;;;33.88;21.50;;;;;;;;;;5000162;28;20022;-75
2024/03/09 08:21:04;;;;;;;34.60;21.98;;;;;;;;;;5000114;28;20034;-75
2024/03/09 08:23:29;;;;;;;34.67;22.15;;;;;;;;;;4996147;28;20030;-75
2024/03/09 08:25:55;;;;;;;37.30;22.52;;;;;;;;;;4996765;28;20109;-76
2024/03/09 08:28:20;;;;;;;32.85;21.38;;;;;;;;;;5000625;28;20037;-77
2024/03/09 08:30:47;;;;;;;37.47;20.45;;;;;;;;;;4998044;28;20049;-75
2024/03/09 08:33:12;;;;;;;35.10;20.85;;;;;;;;;;4995397;28;20026;-75
2024/03/09 08:35:38;;;;;;;34.80;21.60;;;;;;;;;;4995844;28;20037;-75
2024/03/09 08:38:04;;;;;;;32.08;18.60;;;;;;;;;;4995401;28;20033;-75
2024/03/09 08:40:32;;;;;;;33.22;20.17;;;;;;;;;;4995836;28;20804;-75
2024/03/09 08:42:58;;;;;;;34.40;21.30;;;;;;;;;;4990928;28;20030;-75
2024/03/09 08:45:24;;;;;;;39.22;22.65;;;;;;;;;;4992199;28;20124;-75
2024/03/09 08:47:52;;;;;;;35.33;20.20;;;;;;;;;;4996963;28;20038;-76
2024/03/09 08:50:18;;;;;;;33.63;20.70;;;;;;;;;;4996464;28;20034;-76
2024/03/09 08:52:46;;;;;;;32.25;19.60;;;;;;;;;;4995858;28;20029;-76
2024/03/09 08:55:12;;;;;;;33.97;21.27;;;;;;;;;;4996317;28;20034;-76
2024/03/09 08:57:37;;;;;;;33.03;20.10;;;;;;;;;;4995330;28;20096;-77
2024/03/09 09:00:06;;;;;;;31.92;19.58;;;;;;;;;;5002928;28;20034;-76
2024/03/09 09:02:31;;;;;;;30.50;18.52;;;;;;;;;;4994212;28;20037;-76
2024/03/09 09:04:56;;;;;;;32.78;20.63;;;;;;;;;;4996412;28;20034;-76
2024/03/09 09:07:22;;;;;;;31.70;19.60;;;;;;;;;;4998949;28;20062;-76
2024/03/09 09:09:47;;;;;;;30.90;18.52;;;;;;;;;;4999352;28;20392;-76
2024/03/09 09:12:12;;;;;;;32.95;20.00;;;;;;;;;;4993205;28;20065;-75
2024/03/09 09:14:38;;;;;;;31.73;19.13;;;;;;;;;;4992946;28;20125;-75
2024/03/09 09:17:06;;;;;;;32.72;20.73;;;;;;;;;;4993592;28;20104;-76
2024/03/09 09:19:38;;;;;;;32.85;21.08;;;;;;;;;;4995611;28;20044;-77
2024/03/09 09:22:05;;;;;;;33.40;20.45;;;;;;;;;;4991661;28;20034;-76
2024/03/09 09:24:30;;;;;;;29.83;19.55;;;;;;;;;;4991565;28;20415;-76
2024/03/09 09:26:58;;;;;;;29.38;19.17;;;;;;;;;;4992844;28;20026;-76
2024/03/09 09:29:23;;;;;;;28.98;18.98;;;;;;;;;;4996211;28;20030;-76
2024/03/09 09:31:50;;;;;;;32.00;18.65;;;;;;;;;;4992430;28;20040;-75
2024/03/09 09:34:15;;;;;;;30.52;17.92;;;;;;;;;;4991669;28;20080;-76
2024/03/09 09:36:40;;;;;;;34.58;21.17;;;;;;;;;;4992310;28;20052;-75
2024/03/09 09:39:06;;;;;;;31.55;19.67;;;;;;;;;;4995943;28;20735;-75
2024/03/09 09:41:31;;;;;;;31.17;19.65;;;;;;;;;;4993995;28;20041;-76
2024/03/09 09:43:59;;;;;;;30.65;19.90;;;;;;;;;;4992536;28;20503;-76
2024/03/09 09:46:26;;;;;;;31.77;20.05;;;;;;;;;;4992259;28;20026;-75
2024/03/09 09:48:52;;;;;;;28.45;18.30;;;;;;;;;;4993212;28;20038;-75
2024/03/09 09:51:20;;;;;;;30.90;18.92;;;;;;;;;;4991804;28;20467;-75
2024/03/09 09:53:47;;;;;;;29.27;19.35;;;;;;;;;;4992287;28;20553;-76
2024/03/09 09:56:14;;;;;;;32.00;18.77;;;;;;;;;;4995619;28;20049;-76
2024/03/09 09:58:39;;;;;;;30.10;18.75;;;;;;;;;;4993186;28;20046;-76
2024/03/09 10:01:04;;;;;;;29.42;19.45;;;;;;;;;;4994095;28;20042;-76
2024/03/09 10:03:30;;;;;;;29.92;18.52;;;;;;;;;;4992077;28;20022;-75
2024/03/09 10:05:57;;;;;;;28.23;18.60;;;;;;;;;;4992906;28;20030;-74
2024/03/09 10:08:22;;;;;;;31.08;18.08;;;;;;;;;;4994023;28;20037;-75
2024/03/09 10:10:48;;;;;;;25.92;16.98;;;;;;;;;;4994820;28;20027;-75
2024/03/09 10:13:13;;;;;;;27.27;16.67;;;;;;;;;;4987098;28;20047;-75
2024/03/09 10:15:40;;;;;;;26.92;17.23;;;;;;;;;;4990797;28;20031;-75
2024/03/09 10:18:06;;;;;;;29.10;18.48;;;;;;;;;;5017043;28;20113;-74
2024/03/09 10:20:32;;;;;;;27.55;18.90;;;;;;;;;;4988850;28;20133;-75
2024/03/09 10:22:59;;;;;;;26.23;17.35;;;;;;;;;;4986272;28;20070;-75
2024/03/09 10:25:25;;;;;;;28.33;17.80;;;;;;;;;;4990753;28;20061;-75
2024/03/09 10:27:52;;;;;;;27.88;17.15;;;;;;;;;;4989837;28;20720;-75
2024/03/09 10:30:18;;;;;;;26.40;17.83;;;;;;;;;;4993055;28;20037;-75
2024/03/09 10:32:43;;;;;;;26.30;17.45;;;;;;;;;;4987616;28;20410;-75
2024/03/09 10:35:11;;;;;;;26.67;17.02;;;;;;;;;;4986994;28;20113;-75
2024/03/09 10:37:40;;;;;;;23.20;16.08;;;;;;;;;;4991195;28;20030;-76
2024/03/09 10:40:12;;;;;;;23.20;15.35;;;;;;;;;;4991880;28;20040;-75
2024/03/09 10:42:42;;;;;;;22.42;15.20;;;;;;;;;;4990501;28;20101;-75
2024/03/09 10:45:11;;;;;;;24.63;16.75;;;;;;;;;;4987888;28;20035;-74
2024/03/09 10:47:39;;;;;;;24.45;15.25;;;;;;;;;;4990475;28;20436;-75
2024/03/09 10:50:06;;;;;;;24.13;15.85;;;;;;;;;;4995970;28;20042;-75
2024/03/09 10:52:31;;;;;;;21.85;13.57;;;;;;;;;;4986512;28;20491;-75
2024/03/09 10:55:04;;;;;;;20.67;13.35;;;;;;;;;;4987630;28;20066;-75
2024/03/09 10:57:30;;;;;;;19.30;12.40;;;;;;;;;;4988255;28;20534;-75
2024/03/09 10:59:57;;;;;;;18.35;12.30;;;;;;;;;;4996900;28;20062;-75
2024/03/09 11:02:22;;;;;;;19.10;12.50;;;;;;;;;;4989670;28;20113;-75
2024/03/09 11:04:51;;;;;;;19.85;12.70;;;;;;;;;;4988441;28;20562;-75
2024/03/09 11:07:20;;;;;;;17.90;12.05;;;;;;;;;;4991533;28;20744;-75
2024/03/09 11:09:47;;;;;;;18.42;12.15;;;;;;;;;;4994464;28;20031;-75
2024/03/09 11:12:14;;;;;;;17.92;11.77;;;;;;;;;;4991020;28;20038;-75
2024/03/09 11:14:52;;;;;;;17.75;12.15;;;;;;;;;;4989700;28;20034;-75
2024/03/09 11:17:21;;;;;;;15.20;11.10;;;;;;;;;;4988021;28;20030;-75
2024/03/09 11:19:53;;;;;;;20.60;13.93;;;;;;;;;;4993251;28;20030;-75
2024/03/09 11:22:37;;;;;;;18.17;12.77;;;;;;;;;;4987929;28;20110;-75
2024/03/09 11:25:03;;;;;;;17.23;11.23;;;;;;;;;;4988048;28;20038;-75
2024/03/09 11:27:31;;;;;;;17.90;11.82;;;;;;;;;;4990958;28;20031;-75
2024/03/09 11:29:56;;;;;;;15.18;9.85;;;;;;;;;;4995159;28;20062;-75
2024/03/09 11:32:21;;;;;;;16.45;9.57;;;;;;;;;;4989963;28;20125;-75
2024/03/09 11:34:47;;;;;;;16.98;11.05;;;;;;;;;;4990509;28;20046;-75
2024/03/09 11:37:13;;;;;;;14.25;9.15;;;;;;;;;;4991033;28;20384;-75
2024/03/09 11:39:39;;;;;;;12.60;9.07;;;;;;;;;;4996308;28;20057;-75
2024/03/09 11:42:08;;;;;;;12.88;8.25;;;;;;;;;;4990553;28;20492;-75
2024/03/09 11:44:36;;;;;;;25.35;14.98;;;;;;;;;;4989120;28;20030;-75
2024/03/09 11:47:03;;;;;;;17.92;10.75;;;;;;;;;;4991900;28;20034;-75
2024/03/09 11:49:29;;;;;;;17.10;11.15;;;;;;;;;;4993375;28;20030;-75
2024/03/09 11:51:56;;;;;;;14.88;9.50;;;;;;;;;;4989258;28;20487;-75
2024/03/09 11:54:22;;;;;;;14.63;9.38;;;;;;;;;;4988857;28;20050;-74
2024/03/09 11:56:47;;;;;;;14.13;9.27;;;;;;;;;;4990425;28;20038;-75
2024/03/09 11:59:12;;;;;;;14.77;8.73;;;;;;;;;;4992883;28;20034;-75
2024/03/09 12:01:39;;;;;;;16.42;10.95;;;;;;;;;;4989891;28;20037;-75
2024/03/09 12:04:05;;;;;;;15.88;9.93;;;;;;;;;;4989208;28;20035;-75
2024/03/09 12:06:30;;;;;;;13.05;8.60;;;;;;;;;;4989890;28;20446;-75
2024/03/09 12:08:56;;;;;;;12.90;9.55;;;;;;;;;;4993155;28;20041;-75
2024/03/09 12:11:22;;;;;;;13.75;9.45;;;;;;;;;;4992891;28;20083;-75
2024/03/09 12:13:48;;;;;;;14.18;9.77;;;;;;;;;;4990277;28;20639;-77
2024/03/09 12:16:14;;;;;;;14.18;10.15;;;;;;;;;;4984443;28;20630;-75
2024/03/09 12:18:45;;;;;;;12.90;9.35;;;;;;;;;;4981652;28;20410;-75
2024/03/09 12:21:10;;;;;;;13.40;10.10;;;;;;;;;;4982871;28;20034;-75
2024/03/09 12:23:36;;;;;;;14.68;10.00;;;;;;;;;;4979313;28;20029;-75
2024/03/09 12:26:01;;;;;;;16.50;10.77;;;;;;;;;;4978341;28;20026;-75
2024/03/09 12:28:27;;;;;;;14.50;10.00;;;;;;;;;;4979648;28;20399;-75
2024/03/09 12:30:53;;;;;;;15.07;10.55;;;;;;;;;;4983928;28;20122;-75
2024/03/09 12:33:18;;;;;;;14.02;10.10;;;;;;;;;;4985392;28;20030;-75
2024/03/09 12:35:46;;;;;;;14.52;9.88;;;;;;;;;;4996598;28;20038;-75
2024/03/09 12:38:14;;;;;;;12.82;9.45;;;;;;;;;;4982787;28;20495;-75
2024/03/09 12:40:44;;;;;;;13.60;9.13;;;;;;;;;;4986335;28;20034;-75
2024/03/09 12:43:09;;;;;;;12.07;8.50;;;;;;;;;;4986449;28;20145;-75
2024/03/09 12:45:36;;;;;;;12.77;8.43;;;;;;;;;;4985414;28;20132;-76
2024/03/09 12:48:02;;;;;;;12.98;8.63;;;;;;;;;;4991980;28;20399;-75
2024/03/09 12:50:27;;;;;;;13.90;9.63;;;;;;;;;;4992304;28;20089;-76
2024/03/09 12:52:53;;;;;;;14.73;10.68;;;;;;;;;;4987068;28;20070;-75
2024/03/09 12:55:19;;;;;;;11.20;8.43;;;;;;;;;;4992564;28;20034;-75
2024/03/09 12:57:48;;;;;;;14.48;9.95;;;;;;;;;;4993366;28;20090;-75
2024/03/09 13:00:20;;;;;;;12.23;8.27;;;;;;;;;;4996792;28;20046;-75
2024/03/09 13:02:49;;;;;;;13.73;9.15;;;;;;;;;;4991629;28;20161;-75
2024/03/09 13:05:22;;;;;;;12.80;8.80;;;;;;;;;;4992983;28;20030;-75
2024/03/09 13:07:56;;;;;;;13.45;9.18;;;;;;;;;;4993113;28;20034;-75
2024/03/09 13:10:24;;;;;;;11.93;8.93;;;;;;;;;;4995204;28;20069;-75
2024/03/09 13:12:50;;;;;;;11.30;8.00;;;;;;;;;;4993057;28;20117;-76
2024/03/09 13:15:20;;;;;;;12.68;8.68;;;;;;;;;;4993309;28;20030;-75
2024/03/09 13:17:46;;;;;;;12.13;8.20;;;;;;;;;;4993427;28;20038;-75
2024/03/09 13:20:17;;;;;;;12.80;8.55;;;;;;;;;;4995201;28;20034;-75
2024/03/09 13:22:43;;;;;;;12.13;9.63;;;;;;;;;;4992535;28;20038;-76
2024/03/09 13:25:10;;;;;;;15.68;9.70;;;;;;;;;;4993103;28;20100;-75
2024/03/09 13:27:37;;;;;;;10.93;7.90;;;;;;;;;;4991220;28;20030;-75
2024/03/09 13:30:09;;;;;;;12.73;8.93;;;;;;;;;;4996009;28;20070;-75
2024/03/09 13:32:34;;;;;;;11.50;8.75;;;;;;;;;;4991123;28;20514;-75
2024/03/09 13:35:06;;;;;;;12.00;8.98;;;;;;;;;;4992857;28;20038;-76
2024/03/09 13:37:31;;;;;;;10.93;8.25;;;;;;;;;;4993049;28;20117;-76
2024/03/09 13:39:56;;;;;;;10.75;8.45;;;;;;;;;;4994448;28;20121;-76
2024/03/09 13:42:22;;;;;;;10.18;7.60;;;;;;;;;;4990883;28;20392;-76
2024/03/09 13:44:49;;;;;;;12.05;9.02;;;;;;;;;;4992468;28;20423;-75
2024/03/09 13:47:14;;;;;;;10.43;7.95;;;;;;;;;;4993126;28;20400;-75
2024/03/09 13:49:40;;;;;;;9.75;7.70;;;;;;;;;;4993297;28;20088;-75
2024/03/09 13:52:05;;;;;;;10.63;7.97;;;;;;;;;;4991051;28;20023;-75
2024/03/09 13:54:30;;;;;;;10.63;7.95;;;;;;;;;;4992429;28;20586;-75
2024/03/09 13:56:55;;;;;;;11.30;8.25;;;;;;;;;;4991959;28;20104;-75
2024/03/09 13:59:22;;;;;;;10.30;8.00;;;;;;;;;;4994074;28;20037;-75
2024/03/09 14:01:48;;;;;;;10.38;8.00;;;;;;;;;;4992156;28;20300;-75
2024/03/09 14:04:13;;;;;;;10.68;8.15;;;;;;;;;;4992524;28;20112;-75
2024/03/09 14:06:40;;;;;;;12.85;8.10;;;;;;;;;;4992451;28;20059;-75
2024/03/09 14:09:05;;;;;;;11.35;8.57;;;;;;;;;;5001950;28;20037;-75
2024/03/09 14:11:31;;;;;;;10.18;7.57;;;;;;;;;;4993251;28;20034;-75
2024/03/09 14:14:00;;;;;;;9.48;7.30;;;;;;;;;;4993462;28;20030;-75
2024/03/09 14:16:27;;;;;;;11.77;8.27;;;;;;;;;;4992394;28;20545;-75